UASP

Details ICAO UASP (PWQ)
Name PAVLODAR
Region Kazakhstan and Kyrgyzstan
Timezone Asia/Almaty (UTC+6.0)
Plans Departing 11
Arriving 17
Stats Elevation 410 ft / 125 m (AMSL)
Location 52.194900° 77.074000°
Runways 1
Magnetic Variation 9.267° E
Sunrise 2018-10-22 01:29:24 UTC / 2018-10-22 07:29:24 Local
Sunset 2018-10-22 11:45:21 UTC / 2018-10-22 17:45:21 Local
Advertisement - Login to hide

Runways

ID Width Length Bearing (true/mag) Surface Threshold Overrun Markings Lighting
03 148 ft / 45 m 8,145 ft / 2,483 m 42.75° / 33.48° CONCRETE 0 ft / 0 m 0 ft / 0 m APP EDGE THRESHOLD SALS
21 148 ft / 45 m 8,145 ft / 2,483 m 222.77° / 213.50° CONCRETE 0 ft / 0 m 0 ft / 0 m APP EDGE THRESHOLD SALS

Map

Weather


0- 5 10 15 20 25 30 35+ Temperature / °C

Clouds and Precipitation
Forecast for 2018-10-22 12:00 UTC. Updated 4 hours ago

Ground ~20,000 ft ~40,000 ft Winds

METAR

UASP 221330Z 27004MPS 9999 -SHSNRA OVC033CB 00/M02 Q1019 R21/0///70 NOSIG RMK QFE753/1004

TAF

Not found

Frequencies

Tower 119.80 MHz
Warning: Do not use this data for real-world aviation or navigation. No guarantee of current accuracy is given.